Time;durP1;ratioP1;P1;durP2;ratioP2;P2;SDS_P1;SDS_P2;PMS_P1;PMS_P2;Temp;Humidity;BMP_temperature;BMP_pressure;BME280_temperature;BME280_humidity;BME280_pressure;Samples;Min_cycle;Max_cycle;Signal;HPM_P1;HPM_P2
2021/03/21 06:03:32;;;;;;;30.60;5.17;;;3.80;99.90;;;;;;6180308;23;20188;-81
2021/03/21 06:06:33;;;;;;;29.50;4.70;;;3.80;99.90;;;;;;6182860;23;20133;-82
2021/03/21 06:09:22;;;;;;;27.03;4.97;;;3.90;99.90;;;;;;6156486;23;20215;-82
2021/03/21 06:11:50;;;;;;;22.47;4.97;;;3.90;99.90;;;;;;6153548;23;20181;-82
2021/03/21 06:15:05;;;;;;;21.30;4.40;;;4.00;99.90;;;;;;6151209;23;20164;-83
2021/03/21 06:22:57;;;;;;;29.73;4.80;;;4.20;99.90;;;;;;6164211;23;20207;-84
2021/03/21 06:25:50;;;;;;;19.63;4.17;;;4.20;99.90;;;;;;6170591;23;20153;-82
2021/03/21 06:28:23;;;;;;;22.03;3.63;;;4.20;99.90;;;;;;6164107;23;20151;-82
2021/03/21 06:31:01;;;;;;;24.00;3.87;;;4.20;99.90;;;;;;6160690;23;20181;-84
2021/03/21 06:33:50;;;;;;;33.27;4.70;;;4.30;99.90;;;;;;6163062;23;20154;-85
2021/03/21 06:36:53;;;;;;;15.60;2.83;;;4.30;99.90;;;;;;6164790;23;20154;-84
2021/03/21 06:39:33;;;;;;;25.90;4.23;;;4.40;99.90;;;;;;6166202;23;20137;-85
2021/03/21 06:42:22;;;;;;;16.67;3.67;;;4.40;99.90;;;;;;6164084;23;20202;-85
2021/03/21 06:45:13;;;;;;;18.77;3.37;;;4.50;99.90;;;;;;6166475;23;20145;-85
2021/03/21 06:48:11;;;;;;;24.40;4.20;;;4.50;99.90;;;;;;6162165;23;20176;-84
2021/03/21 06:50:48;;;;;;;19.80;3.17;;;4.50;99.90;;;;;;6165009;23;20186;-83
2021/03/21 06:53:23;;;;;;;22.60;3.53;;;4.40;99.90;;;;;;6160808;23;20530;-84
2021/03/21 06:56:15;;;;;;;21.23;3.93;;;4.50;99.90;;;;;;6159307;23;20156;-84
2021/03/21 06:58:40;;;;;;;15.37;3.23;;;4.40;99.90;;;;;;6160304;23;20143;-84
2021/03/21 07:01:34;;;;;;;22.07;4.23;;;4.50;99.90;;;;;;6157798;23;20509;-84
2021/03/21 07:04:38;;;;;;;13.97;2.70;;;4.50;99.90;;;;;;6158390;23;20153;-83
2021/03/21 07:20:38;;;;;;;17.80;3.60;;;4.70;99.90;;;;;;6162602;23;20161;-85
2021/03/21 15:20:03;;;;;;;11.83;2.50;;;9.10;99.90;;;;;;6127114;23;20126;-86
2021/03/21 15:29:56;;;;;;;11.13;1.77;;;9.10;99.90;;;;;;6179169;23;20128;-87
2021/03/21 15:32:31;;;;;;;10.67;1.77;;;8.90;99.90;;;;;;6180574;23;20136;-87
2021/03/21 15:35:56;;;;;;;13.37;2.63;;;8.90;99.90;;;;;;6126781;23;20119;-87
2021/03/21 15:38:34;;;;;;;13.33;2.03;;;8.80;99.90;;;;;;6021824;23;20120;-87
2021/03/21 15:41:33;;;;;;;10.20;2.17;;;8.60;99.90;;;;;;6049974;23;20175;-86
2021/03/21 15:44:12;;;;;;;16.37;2.10;;;8.50;99.90;;;;;;6098468;23;20138;-86
2021/03/21 15:46:39;;;;;;;16.43;2.47;;;8.30;99.90;;;;;;6180004;23;20161;-86
2021/03/21 15:49:10;;;;;;;7.47;2.13;;;8.20;99.90;;;;;;6185114;23;20122;-86
2021/03/21 15:51:58;;;;;;;11.23;2.50;;;8.30;99.90;;;;;;6186617;23;20168;-89
2021/03/21 15:54:30;;;;;;;13.70;2.07;;;8.00;99.90;;;;;;6164668;23;20177;-87
2021/03/21 15:57:41;;;;;;;16.77;1.97;;;8.00;99.90;;;;;;6186429;23;20126;-87
2021/03/21 16:16:06;;;;;;;14.33;2.00;;;7.60;99.90;;;;;;6210829;23;20180;-85
2021/03/21 16:19:14;;;;;;;10.17;1.70;;;7.60;99.90;;;;;;6211078;23;20120;-86
2021/03/21 16:21:46;;;;;;;13.83;2.73;;;7.60;99.90;;;;;;6190890;23;20140;-86
2021/03/21 16:24:35;;;;;;;11.67;2.03;;;7.60;99.90;;;;;;6216000;23;20115;-87
2021/03/21 16:27:16;;;;;;;11.00;2.10;;;7.50;99.90;;;;;;6189039;23;20139;-87
2021/03/21 16:29:54;;;;;;;13.57;2.40;;;7.40;99.90;;;;;;6190719;23;20112;-85
2021/03/21 18:22:45;;;;;;;16.27;5.50;;;5.90;99.90;;;;;;6229705;23;20181;-82
2021/03/21 19:37:45;;;;;;;9.10;2.10;;;4.90;99.90;;;;;;6223256;23;20186;-82
2021/03/21 19:40:14;;;;;;;14.63;2.47;;;5.00;99.90;;;;;;6195892;23;20493;-82
2021/03/21 19:42:40;;;;;;;14.10;3.10;;;4.80;99.90;;;;;;6196702;23;20190;-82
2021/03/21 19:45:09;;;;;;;17.27;3.67;;;4.80;99.90;;;;;;6199073;23;20150;-83
2021/03/21 19:47:37;;;;;;;20.93;2.70;;;4.80;99.90;;;;;;6170278;23;20219;-83
2021/03/21 19:50:08;;;;;;;13.80;3.00;;;4.60;99.90;;;;;;6171107;23;20159;-83
2021/03/21 19:52:34;;;;;;;14.83;2.93;;;4.60;99.90;;;;;;6167451;23;20197;-81
2021/03/21 19:55:03;;;;;;;15.53;3.33;;;4.60;99.90;;;;;;6170765;23;20172;-83
2021/03/21 19:57:30;;;;;;;14.53;3.10;;;4.50;99.90;;;;;;6167827;23;20172;-82
2021/03/21 19:59:56;;;;;;;14.27;2.77;;;4.50;99.90;;;;;;6167652;23;20158;-82
2021/03/21 20:02:21;;;;;;;17.03;2.93;;;4.40;99.90;;;;;;6164321;23;20247;-82
2021/03/21 20:04:47;;;;;;;20.80;3.37;;;4.40;99.90;;;;;;6164076;23;20169;-83
2021/03/21 20:07:14;;;;;;;16.80;3.13;;;4.40;99.90;;;;;;6167359;23;20192;-82
2021/03/21 20:09:40;;;;;;;16.70;2.97;;;4.30;99.90;;;;;;6167982;23;20162;-83
2021/03/21 20:12:09;;;;;;;15.93;3.03;;;4.30;99.90;;;;;;6166407;23;20182;-83
2021/03/21 20:14:35;;;;;;;12.50;2.40;;;4.30;99.90;;;;;;6166453;23;20212;-82
2021/03/21 20:17:00;;;;;;;14.23;3.10;;;4.20;99.90;;;;;;6170203;23;20174;-82
2021/03/21 20:19:26;;;;;;;9.90;2.53;;;4.20;99.90;;;;;;6168425;23;20152;-81
2021/03/21 20:22:17;;;;;;;14.13;2.63;;;4.20;99.90;;;;;;6165955;23;20160;-83
2021/03/21 20:24:44;;;;;;;13.37;3.10;;;4.30;99.90;;;;;;6167947;23;20158;-83
2021/03/21 20:27:10;;;;;;;11.80;2.37;;;4.40;99.90;;;;;;6166043;23;20699;-83
2021/03/21 20:29:37;;;;;;;20.50;3.43;;;4.30;99.90;;;;;;6164031;23;20160;-82
2021/03/21 20:32:04;;;;;;;11.27;2.63;;;4.40;99.90;;;;;;6167608;23;20182;-82
2021/03/21 20:34:32;;;;;;;9.80;2.80;;;4.50;99.90;;;;;;6168892;23;20152;-82
2021/03/21 20:36:58;;;;;;;17.23;4.07;;;4.50;99.90;;;;;;6167165;23;20192;-82
2021/03/21 20:39:24;;;;;;;16.70;4.80;;;4.60;99.90;;;;;;6165538;23;20150;-82
2021/03/21 20:41:51;;;;;;;22.43;5.47;;;4.50;99.90;;;;;;6192151;23;20166;-82
2021/03/21 20:44:16;;;;;;;26.60;6.13;;;4.40;99.90;;;;;;6165562;23;20188;-82
2021/03/21 20:46:42;;;;;;;15.03;3.40;;;4.40;99.90;;;;;;6164536;23;20183;-82
2021/03/21 20:49:08;;;;;;;20.20;2.77;;;4.40;99.90;;;;;;6164403;23;20156;-82
2021/03/21 20:51:33;;;;;;;14.40;3.17;;;4.30;99.90;;;;;;6164773;23;20687;-83
2021/03/21 20:54:03;;;;;;;11.53;2.60;;;4.40;99.90;;;;;;6165560;23;20156;-82
2021/03/21 20:56:29;;;;;;;12.93;2.87;;;4.30;99.90;;;;;;6163855;23;20170;-83
2021/03/21 20:58:57;;;;;;;13.37;3.00;;;4.30;99.90;;;;;;6162874;23;20233;-82
2021/03/21 21:01:23;;;;;;;17.57;3.03;;;4.20;99.90;;;;;;6162619;23;20155;-82
2021/03/21 21:03:49;;;;;;;12.13;2.33;;;4.20;99.90;;;;;;6187299;23;20239;-82
2021/03/21 21:06:16;;;;;;;18.23;3.17;;;4.10;99.90;;;;;;6162345;23;20212;-82
2021/03/21 21:08:42;;;;;;;14.53;3.37;;;4.10;99.90;;;;;;6187076;23;20154;-82
2021/03/21 21:11:07;;;;;;;12.67;3.10;;;4.00;99.90;;;;;;6167617;23;20230;-81
2021/03/21 21:13:33;;;;;;;15.47;2.97;;;3.90;99.90;;;;;;6175125;23;20152;-81
2021/03/21 21:16:03;;;;;;;19.30;3.37;;;3.90;99.90;;;;;;6167720;23;20245;-81
2021/03/21 21:18:30;;;;;;;19.37;3.30;;;3.90;99.90;;;;;;6169259;23;20200;-82
2021/03/21 21:20:59;;;;;;;18.07;4.00;;;3.90;99.90;;;;;;6170904;23;20175;-81
2021/03/21 21:23:28;;;;;;;20.47;3.63;;;3.90;99.90;;;;;;6194544;23;20152;-81
2021/03/21 21:25:58;;;;;;;18.80;4.50;;;3.90;99.90;;;;;;6196480;23;20169;-81
2021/03/21 21:28:27;;;;;;;20.57;4.10;;;3.90;99.90;;;;;;6173279;23;20156;-81
2021/03/21 21:30:54;;;;;;;21.97;4.63;;;4.00;99.90;;;;;;6159807;23;20184;-82
2021/03/21 21:33:19;;;;;;;21.27;4.83;;;3.90;99.90;;;;;;6158974;23;20184;-82
2021/03/21 21:35:48;;;;;;;16.13;3.30;;;3.90;99.90;;;;;;6159025;23;20183;-82
2021/03/21 21:38:15;;;;;;;20.57;3.87;;;3.90;99.90;;;;;;6159050;23;20516;-81
2021/03/21 21:40:41;;;;;;;20.50;3.60;;;3.80;99.90;;;;;;6158900;23;20157;-82
2021/03/21 21:43:11;;;;;;;21.53;3.63;;;3.80;99.90;;;;;;6158586;23;20160;-81
2021/03/21 21:45:37;;;;;;;25.20;6.87;;;3.70;99.90;;;;;;6158634;23;20187;-81
2021/03/21 21:48:04;;;;;;;27.67;6.97;;;3.80;99.90;;;;;;6158265;23;20168;-80
2021/03/21 21:50:30;;;;;;;29.10;8.17;;;3.70;99.90;;;;;;6158176;23;20185;-79
2021/03/21 21:52:55;;;;;;;21.17;6.23;;;3.80;99.90;;;;;;6158012;23;20156;-81
2021/03/21 21:55:26;;;;;;;27.43;7.27;;;3.70;99.90;;;;;;6158128;23;20148;-80
2021/03/21 21:57:51;;;;;;;17.90;5.63;;;3.80;99.90;;;;;;6158182;23;20159;-81
2021/03/21 22:00:18;;;;;;;17.73;4.20;;;3.80;99.90;;;;;;6158069;23;20219;-81
2021/03/21 22:02:43;;;;;;;22.07;4.57;;;3.80;99.90;;;;;;6158011;23;20152;-80
2021/03/21 22:05:10;;;;;;;21.23;4.87;;;3.80;99.90;;;;;;6158638;23;20211;-81
2021/03/21 22:07:36;;;;;;;23.63;5.57;;;3.80;99.90;;;;;;6158354;23;20152;-81
2021/03/21 22:10:04;;;;;;;21.47;5.70;;;3.90;99.90;;;;;;6158472;23;20643;-81
2021/03/21 22:12:29;;;;;;;19.70;4.67;;;3.80;99.90;;;;;;6158362;23;20184;-80
2021/03/21 22:14:55;;;;;;;18.53;4.73;;;3.80;99.90;;;;;;6158282;23;20240;-81
2021/03/21 22:17:21;;;;;;;22.03;4.47;;;3.80;99.90;;;;;;6157940;23;20205;-80
2021/03/21 22:19:46;;;;;;;13.90;4.07;;;3.80;99.90;;;;;;6157980;23;20180;-81
2021/03/21 22:22:12;;;;;;;17.60;3.30;;;3.80;99.90;;;;;;6158587;23;20206;-81
2021/03/21 22:24:37;;;;;;;12.57;3.00;;;3.70;99.90;;;;;;6158422;23;20156;-81
2021/03/21 22:27:03;;;;;;;16.00;3.03;;;3.70;99.90;;;;;;6158296;23;20510;-81
2021/03/21 22:29:29;;;;;;;19.97;3.70;;;3.70;99.90;;;;;;6157898;23;20246;-81
2021/03/21 22:31:58;;;;;;;16.83;3.83;;;3.70;99.90;;;;;;6158065;23;20199;-81
2021/03/21 22:34:23;;;;;;;18.87;4.00;;;3.70;99.90;;;;;;6158213;23;20180;-81
2021/03/21 22:36:49;;;;;;;17.40;3.30;;;3.60;99.90;;;;;;6157915;23;20520;-80
2021/03/21 22:39:15;;;;;;;20.50;3.57;;;3.60;99.90;;;;;;6158375;23;20154;-81
2021/03/21 22:41:41;;;;;;;12.07;2.90;;;3.50;99.90;;;;;;6160102;23;20160;-81
2021/03/21 22:44:07;;;;;;;19.23;3.50;;;3.40;99.90;;;;;;6159937;23;20601;-81
2021/03/21 22:46:33;;;;;;;16.57;3.07;;;3.50;99.90;;;;;;6159713;23;20183;-81
2021/03/21 22:48:59;;;;;;;13.97;2.70;;;3.40;99.90;;;;;;6159874;23;20160;-80
2021/03/21 22:51:24;;;;;;;19.60;3.07;;;3.40;99.90;;;;;;6159790;23;20184;-81
2021/03/21 22:53:51;;;;;;;12.40;2.37;;;3.40;99.90;;;;;;6160092;23;20160;-81
2021/03/21 22:56:18;;;;;;;13.53;3.00;;;3.30;99.90;;;;;;6159814;23;20197;-82
2021/03/21 22:58:50;;;;;;;18.30;2.90;;;3.30;99.90;;;;;;6159370;23;20153;-82
2021/03/21 23:01:18;;;;;;;18.93;2.83;;;3.40;99.90;;;;;;6160021;23;20599;-81
2021/03/21 23:03:44;;;;;;;13.67;2.83;;;3.30;99.90;;;;;;6159930;23;20589;-81
2021/03/21 23:06:10;;;;;;;15.53;2.97;;;3.30;99.90;;;;;;6159733;23;20222;-81
2021/03/21 23:08:36;;;;;;;13.73;2.93;;;3.30;99.90;;;;;;6159803;23;20152;-81
2021/03/21 23:11:02;;;;;;;12.97;3.30;;;3.30;99.90;;;;;;6159738;23;20180;-81
2021/03/21 23:13:28;;;;;;;18.47;4.00;;;3.40;99.90;;;;;;6159508;23;20243;-81
2021/03/21 23:15:55;;;;;;;12.33;3.03;;;3.30;99.90;;;;;;6159814;23;20180;-81
2021/03/21 23:18:22;;;;;;;14.57;2.67;;;3.30;99.90;;;;;;6159456;23;20153;-82
2021/03/21 23:20:49;;;;;;;16.13;3.50;;;3.40;99.90;;;;;;6159902;23;20456;-82
2021/03/21 23:23:16;;;;;;;14.87;3.70;;;3.40;99.90;;;;;;6159714;23;20164;-80
2021/03/21 23:25:42;;;;;;;15.63;3.97;;;3.40;99.90;;;;;;6159623;23;20172;-81
2021/03/21 23:28:13;;;;;;;16.20;3.10;;;3.40;99.90;;;;;;6159617;23;20167;-82
2021/03/21 23:30:41;;;;;;;14.17;3.23;;;3.30;99.90;;;;;;6159701;23;20823;-81
2021/03/21 23:33:07;;;;;;;13.27;2.80;;;3.30;99.90;;;;;;6159654;23;20168;-82
2021/03/21 23:35:34;;;;;;;22.37;3.40;;;3.30;99.90;;;;;;6159396;23;20172;-81
2021/03/21 23:37:59;;;;;;;14.53;3.03;;;3.40;99.90;;;;;;6159534;23;20148;-81
2021/03/21 23:40:29;;;;;;;15.03;3.00;;;3.40;99.90;;;;;;6159620;23;20158;-81
2021/03/21 23:42:55;;;;;;;16.63;3.33;;;3.40;99.90;;;;;;6159415;23;20231;-81
2021/03/21 23:45:26;;;;;;;16.30;2.90;;;3.30;99.90;;;;;;6185602;23;20149;-81
2021/03/21 23:47:52;;;;;;;16.83;3.43;;;3.20;99.90;;;;;;6159596;23;20279;-82
2021/03/21 23:50:27;;;;;;;14.47;3.30;;;3.20;99.90;;;;;;6159086;23;20156;-81
2021/03/21 23:52:53;;;;;;;14.70;3.40;;;3.20;99.90;;;;;;6159087;23;20145;-81
2021/03/21 23:55:19;;;;;;;16.37;2.87;;;3.20;99.90;;;;;;6159698;23;20152;-81
2021/03/21 23:57:45;;;;;;;15.63;3.23;;;3.10;99.90;;;;;;6159595;23;20187;-80
